sensor_id;sensor_type;location;lat;lon;timestamp;pressure;altitude;pressure_sealevel;temperature;humidity
13314;BME280;6725;48.112;11.604;2023-08-06T00:00:44;93577.69;;;15.32;100.00
13314;BME280;6725;48.112;11.604;2023-08-06T00:03:10;93572.66;;;15.30;100.00
13314;BME280;6725;48.112;11.604;2023-08-06T00:05:35;93571.47;;;15.31;100.00
13314;BME280;6725;48.112;11.604;2023-08-06T00:08:00;93579.03;;;15.22;100.00
13314;BME280;6725;48.112;11.604;2023-08-06T00:10:26;93583.88;;;15.27;100.00
13314;BME280;6725;48.112;11.604;2023-08-06T00:12:51;93594.97;;;15.32;100.00
13314;BME280;6725;48.112;11.604;2023-08-06T00:15:16;93586.63;;;15.27;100.00
13314;BME280;6725;48.112;11.604;2023-08-06T00:17:42;93591.38;;;15.26;100.00
13314;BME280;6725;48.112;11.604;2023-08-06T00:20:08;93604.16;;;15.29;100.00
13314;BME280;6725;48.112;11.604;2023-08-06T00:22:37;93612.53;;;15.20;100.00
13314;BME280;6725;48.112;11.604;2023-08-06T00:25:04;93609.19;;;15.16;100.00
13314;BME280;6725;48.112;11.604;2023-08-06T00:27:30;93610.75;;;15.17;100.00
13314;BME280;6725;48.112;11.604;2023-08-06T00:29:55;93606.19;;;15.14;100.00
13314;BME280;6725;48.112;11.604;2023-08-06T00:32:21;93622.13;;;15.10;100.00
13314;BME280;6725;48.112;11.604;2023-08-06T00:34:46;93610.81;;;15.08;100.00
13314;BME280;6725;48.112;11.604;2023-08-06T00:37:14;93629.25;;;15.02;100.00
13314;BME280;6725;48.112;11.604;2023-08-06T00:39:40;93629.31;;;14.93;100.00
13314;BME280;6725;48.112;11.604;2023-08-06T00:42:05;93627.25;;;14.88;100.00
13314;BME280;6725;48.112;11.604;2023-08-06T00:44:31;93624.19;;;14.86;100.00
13314;BME280;6725;48.112;11.604;2023-08-06T00:46:56;93623.25;;;14.75;100.00
13314;BME280;6725;48.112;11.604;2023-08-06T00:49:22;93620.03;;;14.76;100.00
13314;BME280;6725;48.112;11.604;2023-08-06T00:51:48;93617.56;;;14.78;100.00
13314;BME280;6725;48.112;11.604;2023-08-06T00:54:14;93604.69;;;14.84;100.00
13314;BME280;6725;48.112;11.604;2023-08-06T00:56:41;93612.63;;;14.82;100.00
13314;BME280;6725;48.112;11.604;2023-08-06T00:59:07;93605.81;;;14.78;100.00
13314;BME280;6725;48.112;11.604;2023-08-06T01:01:33;93620.97;;;14.73;100.00
13314;BME280;6725;48.112;11.604;2023-08-06T01:03:58;93621.34;;;14.66;100.00
13314;BME280;6725;48.112;11.604;2023-08-06T01:06:37;93614.41;;;14.56;100.00
13314;BME280;6725;48.112;11.604;2023-08-06T01:09:31;93608.06;;;14.50;100.00
13314;BME280;6725;48.112;11.604;2023-08-06T01:12:13;93608.66;;;14.54;100.00
13314;BME280;6725;48.112;11.604;2023-08-06T01:17:18;93607.59;;;14.52;100.00
13314;BME280;6725;48.112;11.604;2023-08-06T01:19:43;93603.06;;;14.49;100.00
13314;BME280;6725;48.112;11.604;2023-08-06T01:22:08;93593.84;;;14.52;100.00
13314;BME280;6725;48.112;11.604;2023-08-06T01:24:34;93593.13;;;14.51;100.00
13314;BME280;6725;48.112;11.604;2023-08-06T01:27:23;93593.13;;;14.51;100.00
13314;BME280;6725;48.112;11.604;2023-08-06T01:30:12;93587.31;;;14.49;100.00
13314;BME280;6725;48.112;11.604;2023-08-06T01:32:46;93587.63;;;14.51;100.00
13314;BME280;6725;48.112;11.604;2023-08-06T01:35:16;93584.00;;;14.45;100.00
13314;BME280;6725;48.112;11.604;2023-08-06T01:37:43;93585.72;;;14.43;100.00
13314;BME280;6725;48.112;11.604;2023-08-06T01:40:12;93588.16;;;14.41;100.00
13314;BME280;6725;48.112;11.604;2023-08-06T01:42:38;93591.38;;;14.39;100.00
13314;BME280;6725;48.112;11.604;2023-08-06T01:45:07;93582.09;;;14.37;100.00
13314;BME280;6725;48.112;11.604;2023-08-06T01:47:33;93585.59;;;14.37;100.00
13314;BME280;6725;48.112;11.604;2023-08-06T01:49:58;93583.78;;;14.34;100.00
13314;BME280;6725;48.112;11.604;2023-08-06T01:52:24;93593.28;;;14.33;100.00
13314;BME280;6725;48.112;11.604;2023-08-06T01:54:49;93594.41;;;14.27;100.00
13314;BME280;6725;48.112;11.604;2023-08-06T01:57:15;93585.97;;;14.30;100.00
13314;BME280;6725;48.112;11.604;2023-08-06T01:59:40;93597.63;;;14.25;100.00
13314;BME280;6725;48.112;11.604;2023-08-06T02:02:06;93578.41;;;14.25;100.00
13314;BME280;6725;48.112;11.604;2023-08-06T02:04:31;93582.66;;;14.26;100.00
13314;BME280;6725;48.112;11.604;2023-08-06T02:06:56;93582.06;;;14.22;100.00
13314;BME280;6725;48.112;11.604;2023-08-06T02:09:22;93579.00;;;14.20;100.00
13314;BME280;6725;48.112;11.604;2023-08-06T02:11:47;93570.50;;;14.18;100.00
13314;BME280;6725;48.112;11.604;2023-08-06T02:14:12;93572.00;;;14.19;100.00
13314;BME280;6725;48.112;11.604;2023-08-06T02:16:38;93571.09;;;14.22;100.00
13314;BME280;6725;48.112;11.604;2023-08-06T02:19:03;93570.91;;;14.26;100.00
13314;BME280;6725;48.112;11.604;2023-08-06T02:21:28;93568.47;;;14.28;100.00
13314;BME280;6725;48.112;11.604;2023-08-06T02:23:54;93574.75;;;14.19;100.00
13314;BME280;6725;48.112;11.604;2023-08-06T02:26:19;93566.50;;;14.19;100.00
13314;BME280;6725;48.112;11.604;2023-08-06T02:28:45;93574.75;;;14.19;100.00
13314;BME280;6725;48.112;11.604;2023-08-06T02:31:10;93556.94;;;14.15;100.00
13314;BME280;6725;48.112;11.604;2023-08-06T02:33:35;93551.91;;;14.13;100.00
13314;BME280;6725;48.112;11.604;2023-08-06T02:36:02;93550.13;;;14.10;100.00
13314;BME280;6725;48.112;11.604;2023-08-06T02:38:29;93552.28;;;14.06;100.00
13314;BME280;6725;48.112;11.604;2023-08-06T02:40:54;93551.69;;;14.02;100.00
13314;BME280;6725;48.112;11.604;2023-08-06T02:43:20;93548.84;;;13.97;100.00
13314;BME280;6725;48.112;11.604;2023-08-06T02:45:45;93542.88;;;13.98;100.00
13314;BME280;6725;48.112;11.604;2023-08-06T02:48:10;93539.00;;;13.90;100.00
13314;BME280;6725;48.112;11.604;2023-08-06T02:50:40;93526.50;;;13.89;100.00
13314;BME280;6725;48.112;11.604;2023-08-06T02:53:06;93524.03;;;13.91;100.00
13314;BME280;6725;48.112;11.604;2023-08-06T02:55:33;93511.56;;;13.90;100.00
13314;BME280;6725;48.112;11.604;2023-08-06T02:57:59;93504.72;;;13.86;100.00
13314;BME280;6725;48.112;11.604;2023-08-06T03:00:25;93513.25;;;13.88;100.00
13314;BME280;6725;48.112;11.604;2023-08-06T03:02:50;93507.00;;;13.87;100.00
13314;BME280;6725;48.112;11.604;2023-08-06T03:05:16;93504.91;;;13.82;100.00
13314;BME280;6725;48.112;11.604;2023-08-06T03:07:41;93508.59;;;13.79;100.00
13314;BME280;6725;48.112;11.604;2023-08-06T03:10:06;93511.34;;;13.79;100.00
13314;BME280;6725;48.112;11.604;2023-08-06T03:12:32;93515.31;;;13.78;100.00
13314;BME280;6725;48.112;11.604;2023-08-06T03:14:57;93518.06;;;13.78;100.00
13314;BME280;6725;48.112;11.604;2023-08-06T03:17:23;93516.41;;;13.72;100.00
13314;BME280;6725;48.112;11.604;2023-08-06T03:19:48;93521.91;;;13.72;100.00
13314;BME280;6725;48.112;11.604;2023-08-06T03:22:13;93527.59;;;13.68;100.00
13314;BME280;6725;48.112;11.604;2023-08-06T03:24:39;93538.75;;;13.65;100.00
13314;BME280;6725;48.112;11.604;2023-08-06T03:27:04;93528.25;;;13.63;100.00
13314;BME280;6725;48.112;11.604;2023-08-06T03:29:30;93534.00;;;13.65;100.00
13314;BME280;6725;48.112;11.604;2023-08-06T03:31:55;93539.47;;;13.65;100.00
13314;BME280;6725;48.112;11.604;2023-08-06T03:34:21;93529.75;;;13.64;100.00
13314;BME280;6725;48.112;11.604;2023-08-06T03:36:46;93539.84;;;13.58;100.00
13314;BME280;6725;48.112;11.604;2023-08-06T03:39:11;93531.13;;;13.60;100.00
13314;BME280;6725;48.112;11.604;2023-08-06T03:41:37;93529.63;;;13.59;100.00
13314;BME280;6725;48.112;11.604;2023-08-06T03:44:02;93523.69;;;13.60;100.00
13314;BME280;6725;48.112;11.604;2023-08-06T03:46:29;93521.41;;;13.59;100.00
13314;BME280;6725;48.112;11.604;2023-08-06T03:48:54;93524.03;;;13.53;100.00
13314;BME280;6725;48.112;11.604;2023-08-06T03:51:19;93528.00;;;13.52;100.00
13314;BME280;6725;48.112;11.604;2023-08-06T03:53:45;93515.22;;;13.49;100.00
13314;BME280;6725;48.112;11.604;2023-08-06T03:56:10;93513.72;;;13.48;100.00
13314;BME280;6725;48.112;11.604;2023-08-06T03:58:36;93521.28;;;13.53;100.00
13314;BME280;6725;48.112;11.604;2023-08-06T04:01:02;93519.66;;;13.47;100.00
13314;BME280;6725;48.112;11.604;2023-08-06T04:03:27;93517.84;;;13.44;100.00
13314;BME280;6725;48.112;11.604;2023-08-06T04:05:54;93529.44;;;13.38;100.00
13314;BME280;6725;48.112;11.604;2023-08-06T04:08:19;93523.50;;;13.40;100.00
13314;BME280;6725;48.112;11.604;2023-08-06T04:10:44;93519.56;;;13.41;100.00
13314;BME280;6725;48.112;11.604;2023-08-06T04:13:10;93513.75;;;13.39;100.00
13314;BME280;6725;48.112;11.604;2023-08-06T04:15:35;93514.22;;;13.38;100.00
13314;BME280;6725;48.112;11.604;2023-08-06T04:18:00;93518.59;;;13.44;100.00
13314;BME280;6725;48.112;11.604;2023-08-06T04:20:26;93511.13;;;13.45;100.00
13314;BME280;6725;48.112;11.604;2023-08-06T04:22:53;93512.50;;;13.49;100.00
13314;BME280;6725;48.112;11.604;2023-08-06T04:25:18;93515.22;;;13.49;100.00
13314;BME280;6725;48.112;11.604;2023-08-06T04:27:47;93507.59;;;13.53;100.00
13314;BME280;6725;48.112;11.604;2023-08-06T04:30:12;93514.88;;;13.56;100.00
13314;BME280;6725;48.112;11.604;2023-08-06T04:32:38;93511.78;;;13.63;100.00
13314;BME280;6725;48.112;11.604;2023-08-06T04:35:04;93502.91;;;13.68;100.00
13314;BME280;6725;48.112;11.604;2023-08-06T04:37:29;93509.13;;;13.92;100.00
13314;BME280;6725;48.112;11.604;2023-08-06T04:39:55;93510.25;;;14.15;100.00
13314;BME280;6725;48.112;11.604;2023-08-06T04:42:20;93502.84;;;14.44;100.00
13314;BME280;6725;48.112;11.604;2023-08-06T04:44:45;93496.59;;;14.58;100.00
13314;BME280;6725;48.112;11.604;2023-08-06T04:47:11;93491.84;;;14.59;100.00
13314;BME280;6725;48.112;11.604;2023-08-06T04:49:36;93478.09;;;14.73;100.00
13314;BME280;6725;48.112;11.604;2023-08-06T04:52:01;93447.56;;;15.06;100.00
13314;BME280;6725;48.112;11.604;2023-08-06T04:54:27;93418.38;;;15.08;100.00
13314;BME280;6725;48.112;11.604;2023-08-06T04:56:52;93379.47;;;14.95;100.00
13314;BME280;6725;48.112;11.604;2023-08-06T04:59:17;93354.44;;;14.93;100.00
13314;BME280;6725;48.112;11.604;2023-08-06T05:01:43;93315.09;;;14.82;100.00
13314;BME280;6725;48.112;11.604;2023-08-06T05:04:08;93300.69;;;14.72;100.00
13314;BME280;6725;48.112;11.604;2023-08-06T05:06:33;93290.16;;;14.65;100.00
13314;BME280;6725;48.112;11.604;2023-08-06T05:08:59;93279.56;;;14.58;100.00
13314;BME280;6725;48.112;11.604;2023-08-06T05:11:24;93280.22;;;14.53;100.00
13314;BME280;6725;48.112;11.604;2023-08-06T05:13:50;93258.00;;;14.51;100.00
13314;BME280;6725;48.112;11.604;2023-08-06T05:16:15;93250.34;;;14.41;100.00
13314;BME280;6725;48.112;11.604;2023-08-06T05:18:40;93248.00;;;14.34;100.00
13314;BME280;6725;48.112;11.604;2023-08-06T05:21:07;93247.19;;;14.28;100.00
13314;BME280;6725;48.112;11.604;2023-08-06T05:23:32;93243.50;;;14.31;100.00
13314;BME280;6725;48.112;11.604;2023-08-06T05:25:57;93243.13;;;14.23;100.00
13314;BME280;6725;48.112;11.604;2023-08-06T05:28:23;93242.00;;;14.15;100.00
13314;BME280;6725;48.112;11.604;2023-08-06T05:30:48;93237.28;;;14.16;100.00
13314;BME280;6725;48.112;11.604;2023-08-06T05:33:14;93226.09;;;14.19;100.00
13314;BME280;6725;48.112;11.604;2023-08-06T05:35:41;93227.59;;;14.20;100.00
13314;BME280;6725;48.112;11.604;2023-08-06T05:38:07;93229.22;;;14.12;100.00
13314;BME280;6725;48.112;11.604;2023-08-06T05:40:35;93227.03;;;14.16;100.00
13314;BME280;6725;48.112;11.604;2023-08-06T05:43:01;93226.09;;;14.19;100.00
13314;BME280;6725;48.112;11.604;2023-08-06T05:45:26;93220.22;;;14.26;100.00
13314;BME280;6725;48.112;11.604;2023-08-06T05:47:51;93217.66;;;14.23;100.00
13314;BME280;6725;48.112;11.604;2023-08-06T05:50:19;93213.31;;;14.16;100.00
13314;BME280;6725;48.112;11.604;2023-08-06T05:52:44;93202.44;;;14.22;100.00
13314;BME280;6725;48.112;11.604;2023-08-06T05:55:10;93204.13;;;14.19;100.00
13314;BME280;6725;48.112;11.604;2023-08-06T05:57:35;93196.75;;;14.25;100.00
13314;BME280;6725;48.112;11.604;2023-08-06T06:00:01;93189.13;;;14.35;100.00
13314;BME280;6725;48.112;11.604;2023-08-06T06:02:27;93193.44;;;14.41;100.00
13314;BME280;6725;48.112;11.604;2023-08-06T06:04:52;93185.28;;;14.47;100.00
13314;BME280;6725;48.112;11.604;2023-08-06T06:07:17;93178.41;;;14.57;100.00
13314;BME280;6725;48.112;11.604;2023-08-06T06:09:43;93185.19;;;14.61;100.00
13314;BME280;6725;48.112;11.604;2023-08-06T06:12:08;93198.50;;;14.68;100.00
13314;BME280;6725;48.112;11.604;2023-08-06T06:14:33;93193.28;;;14.70;100.00
13314;BME280;6725;48.112;11.604;2023-08-06T06:16:59;93192.88;;;14.77;100.00
13314;BME280;6725;48.112;11.604;2023-08-06T06:19:25;93213.19;;;14.85;100.00
13314;BME280;6725;48.112;11.604;2023-08-06T06:21:50;93231.47;;;14.88;100.00
13314;BME280;6725;48.112;11.604;2023-08-06T06:24:16;93254.66;;;15.07;100.00
13314;BME280;6725;48.112;11.604;2023-08-06T06:26:41;93314.84;;;15.05;100.00
13314;BME280;6725;48.112;11.604;2023-08-06T06:29:07;93343.44;;;15.33;100.00
13314;BME280;6725;48.112;11.604;2023-08-06T06:31:32;93414.81;;;15.62;100.00
13314;BME280;6725;48.112;11.604;2023-08-06T06:33:57;93490.22;;;15.90;100.00
13314;BME280;6725;48.112;11.604;2023-08-06T06:36:23;93616.72;;;16.19;100.00
13314;BME280;6725;48.112;11.604;2023-08-06T06:38:49;93721.47;;;16.60;100.00
13314;BME280;6725;48.112;11.604;2023-08-06T06:41:14;93914.75;;;16.82;100.00
13314;BME280;6725;48.112;11.604;2023-08-06T06:43:39;94031.06;;;17.29;100.00
13314;BME280;6725;48.112;11.604;2023-08-06T06:46:05;94189.25;;;17.50;100.00
13314;BME280;6725;48.112;11.604;2023-08-06T06:48:32;94282.94;;;17.68;100.00
13314;BME280;6725;48.112;11.604;2023-08-06T06:50:57;94338.06;;;17.62;100.00
13314;BME280;6725;48.112;11.604;2023-08-06T06:53:23;94397.78;;;17.60;100.00
13314;BME280;6725;48.112;11.604;2023-08-06T06:55:56;94410.19;;;17.79;100.00
13314;BME280;6725;48.112;11.604;2023-08-06T06:58:26;94439.06;;;17.92;100.00
13314;BME280;6725;48.112;11.604;2023-08-06T07:00:51;94444.75;;;18.27;100.00
13314;BME280;6725;48.112;11.604;2023-08-06T07:03:17;94475.41;;;18.52;100.00
13314;BME280;6725;48.112;11.604;2023-08-06T07:05:43;94490.84;;;18.06;100.00
13314;BME280;6725;48.112;11.604;2023-08-06T07:08:09;94494.94;;;18.78;100.00
13314;BME280;6725;48.112;11.604;2023-08-06T07:10:34;94500.22;;;20.34;100.00
13314;BME280;6725;48.112;11.604;2023-08-06T07:13:00;94536.22;;;21.67;100.00
13314;BME280;6725;48.112;11.604;2023-08-06T07:15:25;94548.25;;;22.37;100.00
13314;BME280;6725;48.112;11.604;2023-08-06T07:17:50;94556.81;;;22.28;100.00
13314;BME280;6725;48.112;11.604;2023-08-06T07:20:16;94559.06;;;21.46;100.00
13314;BME280;6725;48.112;11.604;2023-08-06T07:22:41;94554.22;;;20.39;100.00
13314;BME280;6725;48.112;11.604;2023-08-06T07:25:07;94565.91;;;20.08;100.00
13314;BME280;6725;48.112;11.604;2023-08-06T07:27:33;94570.16;;;19.69;100.00
13314;BME280;6725;48.112;11.604;2023-08-06T07:29:58;94563.84;;;19.34;100.00
13314;BME280;6725;48.112;11.604;2023-08-06T07:32:24;94560.78;;;18.74;100.00
13314;BME280;6725;48.112;11.604;2023-08-06T07:34:49;94562.34;;;18.13;100.00
13314;BME280;6725;48.112;11.604;2023-08-06T07:37:15;94550.41;;;17.84;100.00
13314;BME280;6725;48.112;11.604;2023-08-06T07:39:40;94546.59;;;17.81;100.00
13314;BME280;6725;48.112;11.604;2023-08-06T07:42:07;94539.50;;;17.66;100.00
13314;BME280;6725;48.112;11.604;2023-08-06T07:44:33;94524.25;;;17.70;100.00
13314;BME280;6725;48.112;11.604;2023-08-06T07:46:58;94514.22;;;17.82;100.00
13314;BME280;6725;48.112;11.604;2023-08-06T07:49:23;94512.13;;;17.77;100.00
13314;BME280;6725;48.112;11.604;2023-08-06T07:51:49;94517.81;;;17.73;100.00
13314;BME280;6725;48.112;11.604;2023-08-06T07:54:17;94515.63;;;17.54;100.00
13314;BME280;6725;48.112;11.604;2023-08-06T07:56:42;94519.97;;;17.46;100.00
13314;BME280;6725;48.112;11.604;2023-08-06T07:59:07;94505.22;;;17.49;100.00
13314;BME280;6725;48.112;11.604;2023-08-06T08:01:33;94512.38;;;17.79;100.00
13314;BME280;6725;48.112;11.604;2023-08-06T08:03:58;94506.75;;;18.35;100.00
13314;BME280;6725;48.112;11.604;2023-08-06T08:06:24;94511.34;;;18.96;100.00
13314;BME280;6725;48.112;11.604;2023-08-06T08:08:49;94526.47;;;20.84;100.00
13314;BME280;6725;48.112;11.604;2023-08-06T08:11:15;94534.91;;;21.63;100.00
13314;BME280;6725;48.112;11.604;2023-08-06T08:13:41;94523.28;;;22.60;100.00
13314;BME280;6725;48.112;11.604;2023-08-06T08:16:06;94524.63;;;22.97;100.00
13314;BME280;6725;48.112;11.604;2023-08-06T08:18:32;94526.34;;;22.62;100.00
13314;BME280;6725;48.112;11.604;2023-08-06T08:20:57;94519.84;;;23.75;100.00
13314;BME280;6725;48.112;11.604;2023-08-06T08:23:24;94518.03;;;23.83;100.00
13314;BME280;6725;48.112;11.604;2023-08-06T08:25:49;94505.09;;;23.91;100.00
13314;BME280;6725;48.112;11.604;2023-08-06T08:28:14;94511.44;;;23.86;100.00
13314;BME280;6725;48.112;11.604;2023-08-06T08:30:43;94511.22;;;24.63;100.00
13314;BME280;6725;48.112;11.604;2023-08-06T08:33:08;94489.25;;;25.18;100.00
13314;BME280;6725;48.112;11.604;2023-08-06T08:35:34;94499.94;;;24.79;100.00
13314;BME280;6725;48.112;11.604;2023-08-06T08:37:59;94492.41;;;24.69;100.00
13314;BME280;6725;48.112;11.604;2023-08-06T08:40:32;94511.16;;;25.09;100.00
13314;BME280;6725;48.112;11.604;2023-08-06T08:43:02;94501.97;;;25.49;100.00
13314;BME280;6725;48.112;11.604;2023-08-06T08:45:29;94504.59;;;23.92;100.00
13314;BME280;6725;48.112;11.604;2023-08-06T08:47:54;94513.97;;;22.85;100.00
13314;BME280;6725;48.112;11.604;2023-08-06T08:50:21;94515.25;;;22.08;100.00
13314;BME280;6725;48.112;11.604;2023-08-06T08:52:47;94511.97;;;21.31;100.00
13314;BME280;6725;48.112;11.604;2023-08-06T08:55:15;94520.34;;;20.80;100.00
13314;BME280;6725;48.112;11.604;2023-08-06T08:57:40;94531.19;;;19.93;100.00
13314;BME280;6725;48.112;11.604;2023-08-06T09:00:06;94541.66;;;19.48;100.00
13314;BME280;6725;48.112;11.604;2023-08-06T09:02:32;94530.25;;;19.81;100.00
13314;BME280;6725;48.112;11.604;2023-08-06T09:04:59;94535.38;;;20.23;100.00
13314;BME280;6725;48.112;11.604;2023-08-06T09:07:29;94532.41;;;20.52;100.00
13314;BME280;6725;48.112;11.604;2023-08-06T09:09:58;94537.22;;;20.51;100.00
13314;BME280;6725;48.112;11.604;2023-08-06T09:12:24;94541.13;;;20.19;100.00
13314;BME280;6725;48.112;11.604;2023-08-06T09:14:50;94549.66;;;19.61;100.00
13314;BME280;6725;48.112;11.604;2023-08-06T09:17:16;94552.19;;;19.30;100.00
13314;BME280;6725;48.112;11.604;2023-08-06T09:19:44;94564.22;;;18.98;100.00
13314;BME280;6725;48.112;11.604;2023-08-06T09:22:12;94573.34;;;18.75;100.00
13314;BME280;6725;48.112;11.604;2023-08-06T09:24:41;94577.38;;;18.74;100.00
13314;BME280;6725;48.112;11.604;2023-08-06T09:27:11;94549.59;;;19.12;100.00
13314;BME280;6725;48.112;11.604;2023-08-06T09:29:45;94544.84;;;19.27;100.00
13314;BME280;6725;48.112;11.604;2023-08-06T09:32:12;94556.19;;;19.00;100.00
13314;BME280;6725;48.112;11.604;2023-08-06T09:34:45;94557.91;;;18.97;100.00
13314;BME280;6725;48.112;11.604;2023-08-06T09:37:11;94556.22;;;18.85;100.00
13314;BME280;6725;48.112;11.604;2023-08-06T09:39:39;94556.94;;;18.86;100.00
13314;BME280;6725;48.112;11.604;2023-08-06T09:42:05;94561.16;;;19.10;100.00
13314;BME280;6725;48.112;11.604;2023-08-06T09:44:32;94568.56;;;19.48;100.00
13314;BME280;6725;48.112;11.604;2023-08-06T09:46:59;94558.75;;;19.47;100.00
13314;BME280;6725;48.112;11.604;2023-08-06T09:49:41;94553.13;;;19.41;100.00
13314;BME280;6725;48.112;11.604;2023-08-06T09:52:11;94562.53;;;19.64;100.00
13314;BME280;6725;48.112;11.604;2023-08-06T09:54:37;94547.72;;;19.67;100.00
13314;BME280;6725;48.112;11.604;2023-08-06T09:57:03;94558.53;;;19.85;100.00
13314;BME280;6725;48.112;11.604;2023-08-06T09:59:29;94550.91;;;19.80;100.00
13314;BME280;6725;48.112;11.604;2023-08-06T10:01:56;94540.44;;;19.35;100.00
13314;BME280;6725;48.112;11.604;2023-08-06T10:04:21;94546.44;;;19.19;100.00
13314;BME280;6725;48.112;11.604;2023-08-06T10:06:48;94552.59;;;18.94;100.00
13314;BME280;6725;48.112;11.604;2023-08-06T10:09:14;94553.25;;;18.89;100.00
13314;BME280;6725;48.112;11.604;2023-08-06T10:11:40;94562.75;;;18.73;100.00
13314;BME280;6725;48.112;11.604;2023-08-06T10:14:10;94564.94;;;18.55;100.00
13314;BME280;6725;48.112;11.604;2023-08-06T10:16:37;94576.16;;;18.37;100.00
13314;BME280;6725;48.112;11.604;2023-08-06T10:19:04;94573.88;;;18.12;100.00
13314;BME280;6725;48.112;11.604;2023-08-06T10:21:31;94570.38;;;18.26;100.00
13314;BME280;6725;48.112;11.604;2023-08-06T10:23:57;94561.31;;;18.49;100.00
13314;BME280;6725;48.112;11.604;2023-08-06T10:26:29;94570.78;;;19.15;100.00
13314;BME280;6725;48.112;11.604;2023-08-06T10:28:55;94552.34;;;20.10;100.00
13314;BME280;6725;48.112;11.604;2023-08-06T10:31:58;94555.38;;;20.52;100.00
13314;BME280;6725;48.112;11.604;2023-08-06T10:34:24;94552.56;;;20.72;100.00
13314;BME280;6725;48.112;11.604;2023-08-06T10:36:50;94550.34;;;20.76;100.00
13314;BME280;6725;48.112;11.604;2023-08-06T10:39:15;94551.91;;;20.57;100.00
13314;BME280;6725;48.112;11.604;2023-08-06T10:41:42;94562.84;;;20.06;100.00
13314;BME280;6725;48.112;11.604;2023-08-06T10:44:09;94560.75;;;19.81;100.00
13314;BME280;6725;48.112;11.604;2023-08-06T10:46:35;94568.22;;;19.26;100.00
13314;BME280;6725;48.112;11.604;2023-08-06T10:49:01;94571.94;;;19.23;100.00
13314;BME280;6725;48.112;11.604;2023-08-06T10:51:27;94577.56;;;19.14;100.00
13314;BME280;6725;48.112;11.604;2023-08-06T10:53:53;94565.38;;;19.06;100.00
13314;BME280;6725;48.112;11.604;2023-08-06T10:56:23;94566.28;;;19.17;100.00
13314;BME280;6725;48.112;11.604;2023-08-06T10:58:50;94570.28;;;19.60;100.00
13314;BME280;6725;48.112;11.604;2023-08-06T11:01:15;94544.59;;;20.34;100.00
13314;BME280;6725;48.112;11.604;2023-08-06T11:03:42;94567.09;;;20.42;100.00
13314;BME280;6725;48.112;11.604;2023-08-06T11:06:08;94566.59;;;20.63;100.00
13314;BME280;6725;48.112;11.604;2023-08-06T11:08:35;94568.78;;;20.79;100.00
13314;BME280;6725;48.112;11.604;2023-08-06T11:11:09;94571.88;;;20.61;100.00
13314;BME280;6725;48.112;11.604;2023-08-06T11:13:36;94567.75;;;20.11;100.00
13314;BME280;6725;48.112;11.604;2023-08-06T11:16:07;94569.22;;;19.92;100.00
13314;BME280;6725;48.112;11.604;2023-08-06T11:18:33;94569.38;;;19.34;100.00
13314;BME280;6725;48.112;11.604;2023-08-06T11:20:59;94579.00;;;19.53;100.00
13314;BME280;6725;48.112;11.604;2023-08-06T11:23:29;94600.38;;;19.52;100.00
13314;BME280;6725;48.112;11.604;2023-08-06T11:25:55;94598.41;;;19.38;100.00
13314;BME280;6725;48.112;11.604;2023-08-06T11:28:20;94590.53;;;19.08;100.00
13314;BME280;6725;48.112;11.604;2023-08-06T11:30:47;94607.53;;;18.86;100.00
13314;BME280;6725;48.112;11.604;2023-08-06T11:33:12;94587.88;;;18.70;100.00
13314;BME280;6725;48.112;11.604;2023-08-06T11:35:38;94596.38;;;18.81;100.00
13314;BME280;6725;48.112;11.604;2023-08-06T11:38:05;94599.94;;;19.25;100.00
13314;BME280;6725;48.112;11.604;2023-08-06T11:40:31;94595.31;;;19.51;100.00
13314;BME280;6725;48.112;11.604;2023-08-06T11:42:57;94611.53;;;19.00;100.00
13314;BME280;6725;48.112;11.604;2023-08-06T11:45:24;94603.72;;;18.98;100.00
13314;BME280;6725;48.112;11.604;2023-08-06T11:47:50;94602.38;;;18.65;100.00
13314;BME280;6725;48.112;11.604;2023-08-06T11:50:27;94606.88;;;18.91;100.00
13314;BME280;6725;48.112;11.604;2023-08-06T11:52:56;94612.66;;;18.79;100.00
13314;BME280;6725;48.112;11.604;2023-08-06T11:55:24;94606.97;;;19.11;100.00
13314;BME280;6725;48.112;11.604;2023-08-06T11:57:50;94595.69;;;19.15;100.00
13314;BME280;6725;48.112;11.604;2023-08-06T12:00:15;94618.50;;;18.95;100.00
13314;BME280;6725;48.112;11.604;2023-08-06T12:02:44;94606.69;;;19.38;100.00
13314;BME280;6725;48.112;11.604;2023-08-06T12:07:37;94624.91;;;19.01;100.00
13314;BME280;6725;48.112;11.604;2023-08-06T12:10:03;94633.50;;;19.18;100.00
13314;BME280;6725;48.112;11.604;2023-08-06T12:12:29;94620.50;;;19.68;100.00
13314;BME280;6725;48.112;11.604;2023-08-06T12:14:55;94610.13;;;19.48;100.00
13314;BME280;6725;48.112;11.604;2023-08-06T12:17:20;94622.63;;;19.58;100.00
13314;BME280;6725;48.112;11.604;2023-08-06T12:19:46;94605.06;;;19.46;100.00
13314;BME280;6725;48.112;11.604;2023-08-06T12:22:13;94610.22;;;19.53;100.00
13314;BME280;6725;48.112;11.604;2023-08-06T12:24:40;94615.00;;;19.53;100.00
13314;BME280;6725;48.112;11.604;2023-08-06T12:27:05;94624.56;;;19.23;100.00
13314;BME280;6725;48.112;11.604;2023-08-06T12:29:31;94637.88;;;18.81;100.00
13314;BME280;6725;48.112;11.604;2023-08-06T12:31:56;94620.59;;;18.86;100.00
13314;BME280;6725;48.112;11.604;2023-08-06T12:34:22;94618.97;;;18.65;100.00
13314;BME280;6725;48.112;11.604;2023-08-06T12:36:47;94621.84;;;18.85;100.00
13314;BME280;6725;48.112;11.604;2023-08-06T12:39:12;94626.81;;;18.81;100.00
13314;BME280;6725;48.112;11.604;2023-08-06T12:41:38;94618.59;;;18.86;100.00
13314;BME280;6725;48.112;11.604;2023-08-06T12:44:03;94627.94;;;18.74;100.00
13314;BME280;6725;48.112;11.604;2023-08-06T12:46:30;94638.50;;;18.38;100.00
13314;BME280;6725;48.112;11.604;2023-08-06T12:48:55;94640.25;;;18.03;100.00
13314;BME280;6725;48.112;11.604;2023-08-06T12:51:23;94648.69;;;17.76;100.00